sensor_id;sensor_type;location;lat;lon;timestamp;pressure;altitude;pressure_sealevel;temperature;humidity
46928;BME280;32668;51.306;-0.576;2022-09-09T00:00:18;99516.63;;;13.99;100.00
46928;BME280;32668;51.306;-0.576;2022-09-09T00:03:16;99526.22;;;13.97;100.00
46928;BME280;32668;51.306;-0.576;2022-09-09T00:05:59;99523.59;;;13.96;100.00
46928;BME280;32668;51.306;-0.576;2022-09-09T00:08:51;99521.84;;;13.98;100.00
46928;BME280;32668;51.306;-0.576;2022-09-09T00:11:40;99520.97;;;14.02;100.00
46928;BME280;32668;51.306;-0.576;2022-09-09T00:14:13;99523.56;;;14.02;100.00
46928;BME280;32668;51.306;-0.576;2022-09-09T00:16:43;99520.94;;;14.05;100.00
46928;BME280;32668;51.306;-0.576;2022-09-09T00:19:21;99515.72;;;14.06;100.00
46928;BME280;32668;51.306;-0.576;2022-09-09T00:27:31;99508.72;;;14.07;100.00
46928;BME280;32668;51.306;-0.576;2022-09-09T00:30:16;99517.41;;;14.11;100.00
46928;BME280;32668;51.306;-0.576;2022-09-09T00:32:45;99516.53;;;14.12;100.00
46928;BME280;32668;51.306;-0.576;2022-09-09T00:35:38;99518.28;;;14.13;100.00
46928;BME280;32668;51.306;-0.576;2022-09-09T00:38:14;99515.66;;;14.14;100.00
46928;BME280;32668;51.306;-0.576;2022-09-09T00:40:58;99504.34;;;14.11;100.00
46928;BME280;32668;51.306;-0.576;2022-09-09T00:43:28;99511.31;;;14.12;100.00
46928;BME280;32668;51.306;-0.576;2022-09-09T00:59:53;99523.50;;;14.13;100.00
46928;BME280;32668;51.306;-0.576;2022-09-09T01:07:51;99512.19;;;14.12;100.00
46928;BME280;32668;51.306;-0.576;2022-09-09T01:10:52;99510.47;;;14.08;100.00
46928;BME280;32668;51.306;-0.576;2022-09-09T01:13:30;99512.22;;;14.07;100.00
46928;BME280;32668;51.306;-0.576;2022-09-09T01:16:00;99507.00;;;14.06;100.00
46928;BME280;32668;51.306;-0.576;2022-09-09T01:18:39;99502.66;;;14.06;100.00
46928;BME280;32668;51.306;-0.576;2022-09-09T01:21:28;99508.72;;;14.07;100.00
46928;BME280;32668;51.306;-0.576;2022-09-09T01:26:43;99506.13;;;14.05;100.00
46928;BME280;32668;51.306;-0.576;2022-09-09T01:29:12;99500.88;;;14.07;100.00
46928;BME280;32668;51.306;-0.576;2022-09-09T01:34:14;99511.38;;;14.02;100.00
46928;BME280;32668;51.306;-0.576;2022-09-09T01:37:06;99505.28;;;14.00;100.00
46928;BME280;32668;51.306;-0.576;2022-09-09T01:39:36;99509.63;;;14.00;100.00
46928;BME280;32668;51.306;-0.576;2022-09-09T01:42:04;99505.28;;;13.96;100.00
46928;BME280;32668;51.306;-0.576;2022-09-09T01:44:32;99508.78;;;13.94;100.00
46928;BME280;32668;51.306;-0.576;2022-09-09T01:46:59;99514.94;;;13.92;100.00
46928;BME280;32668;51.306;-0.576;2022-09-09T01:49:24;99512.31;;;13.89;100.00
46928;BME280;32668;51.306;-0.576;2022-09-09T01:51:53;99509.72;;;13.86;100.00
46928;BME280;32668;51.306;-0.576;2022-09-09T01:54:20;99506.25;;;13.85;100.00
46928;BME280;32668;51.306;-0.576;2022-09-09T02:00:07;99509.75;;;13.81;100.00
46928;BME280;32668;51.306;-0.576;2022-09-09T02:03:15;99516.72;;;13.81;100.00
46928;BME280;32668;51.306;-0.576;2022-09-09T02:08:26;99526.31;;;13.86;100.00
46928;BME280;32668;51.306;-0.576;2022-09-09T02:13:29;99528.91;;;13.86;100.00
46928;BME280;32668;51.306;-0.576;2022-09-09T02:16:07;99528.03;;;13.87;100.00
46928;BME280;32668;51.306;-0.576;2022-09-09T02:18:41;99525.41;;;13.89;100.00
46928;BME280;32668;51.306;-0.576;2022-09-09T02:21:09;99521.91;;;13.90;100.00
46928;BME280;32668;51.306;-0.576;2022-09-09T02:23:37;99517.56;;;13.90;100.00
46928;BME280;32668;51.306;-0.576;2022-09-09T02:26:05;99523.66;;;13.91;100.00
46928;BME280;32668;51.306;-0.576;2022-09-09T02:28:33;99522.78;;;13.89;100.00
46928;BME280;32668;51.306;-0.576;2022-09-09T02:31:00;99525.34;;;13.98;100.00
46928;BME280;32668;51.306;-0.576;2022-09-09T02:33:29;99520.13;;;13.95;100.00
46928;BME280;32668;51.306;-0.576;2022-09-09T02:35:57;99521.88;;;13.94;100.00
46928;BME280;32668;51.306;-0.576;2022-09-09T02:38:30;99521.88;;;13.96;100.00
46928;BME280;32668;51.306;-0.576;2022-09-09T02:40:57;99528.88;;;13.94;100.00
46928;BME280;32668;51.306;-0.576;2022-09-09T02:43:23;99527.09;;;13.94;100.00
46928;BME280;32668;51.306;-0.576;2022-09-09T02:48:51;99526.25;;;13.94;100.00
46928;BME280;32668;51.306;-0.576;2022-09-09T02:51:45;99514.09;;;13.88;100.00
46928;BME280;32668;51.306;-0.576;2022-09-09T02:54:23;99514.94;;;13.86;100.00
46928;BME280;32668;51.306;-0.576;2022-09-09T02:56:53;99524.53;;;13.88;100.00
46928;BME280;32668;51.306;-0.576;2022-09-09T02:59:20;99526.28;;;13.92;100.00
46928;BME280;32668;51.306;-0.576;2022-09-09T03:01:46;99528.00;;;13.93;100.00
46928;BME280;32668;51.306;-0.576;2022-09-09T03:04:12;99526.28;;;13.92;100.00
46928;BME280;32668;51.306;-0.576;2022-09-09T03:06:38;99528.00;;;13.93;100.00
46928;BME280;32668;51.306;-0.576;2022-09-09T03:09:03;99528.88;;;13.94;100.00
46928;BME280;32668;51.306;-0.576;2022-09-09T03:11:29;99529.75;;;13.93;100.00
46928;BME280;32668;51.306;-0.576;2022-09-09T03:13:54;99528.88;;;13.92;100.00
46928;BME280;32668;51.306;-0.576;2022-09-09T03:16:22;99527.16;;;13.91;100.00
46928;BME280;32668;51.306;-0.576;2022-09-09T03:18:47;99535.88;;;13.90;100.00
46928;BME280;32668;51.306;-0.576;2022-09-09T03:21:13;99540.22;;;13.91;100.00
46928;BME280;32668;51.306;-0.576;2022-09-09T03:23:39;99540.22;;;13.91;100.00
46928;BME280;32668;51.306;-0.576;2022-09-09T03:26:04;99536.72;;;13.92;100.00
46928;BME280;32668;51.306;-0.576;2022-09-09T03:28:30;99554.16;;;13.92;100.00
46928;BME280;32668;51.306;-0.576;2022-09-09T03:31:03;99545.47;;;13.91;100.00
46928;BME280;32668;51.306;-0.576;2022-09-09T03:33:29;99558.53;;;13.88;100.00
46928;BME280;32668;51.306;-0.576;2022-09-09T03:35:55;99559.38;;;13.95;100.00
46928;BME280;32668;51.306;-0.576;2022-09-09T03:38:24;99562.88;;;13.92;100.00
46928;BME280;32668;51.306;-0.576;2022-09-09T03:40:52;99559.41;;;13.90;100.00
46928;BME280;32668;51.306;-0.576;2022-09-09T03:43:21;99566.38;;;13.91;100.00
46928;BME280;32668;51.306;-0.576;2022-09-09T03:45:47;99563.75;;;13.93;100.00
46928;BME280;32668;51.306;-0.576;2022-09-09T03:48:13;99571.56;;;13.94;100.00
46928;BME280;32668;51.306;-0.576;2022-09-09T03:50:39;99578.59;;;13.92;100.00
46928;BME280;32668;51.306;-0.576;2022-09-09T03:53:09;99574.22;;;13.91;100.00
46928;BME280;32668;51.306;-0.576;2022-09-09T03:55:34;99582.94;;;13.89;100.00
46928;BME280;32668;51.306;-0.576;2022-09-09T03:58:00;99578.56;;;13.91;100.00
46928;BME280;32668;51.306;-0.576;2022-09-09T04:00:25;99585.53;;;13.92;100.00
46928;BME280;32668;51.306;-0.576;2022-09-09T04:02:51;99583.81;;;13.92;100.00
46928;BME280;32668;51.306;-0.576;2022-09-09T04:05:20;99586.38;;;13.96;100.00
46928;BME280;32668;51.306;-0.576;2022-09-09T04:07:46;99591.63;;;13.94;100.00
46928;BME280;32668;51.306;-0.576;2022-09-09T04:10:11;99586.41;;;13.94;100.00
46928;BME280;32668;51.306;-0.576;2022-09-09T04:12:36;99589.91;;;13.93;100.00
46928;BME280;32668;51.306;-0.576;2022-09-09T04:15:02;99596.88;;;13.92;100.00
46928;BME280;32668;51.306;-0.576;2022-09-09T04:17:27;99595.13;;;13.93;100.00
46928;BME280;32668;51.306;-0.576;2022-09-09T04:19:53;99602.13;;;13.89;100.00
46928;BME280;32668;51.306;-0.576;2022-09-09T04:22:18;99601.28;;;13.84;100.00
46928;BME280;32668;51.306;-0.576;2022-09-09T04:24:43;99603.00;;;13.87;100.00
46928;BME280;32668;51.306;-0.576;2022-09-09T04:27:09;99604.75;;;13.85;100.00
46928;BME280;32668;51.306;-0.576;2022-09-09T04:29:34;99606.50;;;13.81;100.00
46928;BME280;32668;51.306;-0.576;2022-09-09T04:32:00;99606.50;;;13.84;100.00
46928;BME280;32668;51.306;-0.576;2022-09-09T04:34:25;99613.47;;;13.85;100.00
46928;BME280;32668;51.306;-0.576;2022-09-09T04:36:51;99613.47;;;13.84;100.00
46928;BME280;32668;51.306;-0.576;2022-09-09T04:39:17;99614.34;;;13.83;100.00
46928;BME280;32668;51.306;-0.576;2022-09-09T04:41:42;99606.50;;;13.84;100.00
46928;BME280;32668;51.306;-0.576;2022-09-09T04:44:07;99614.34;;;13.84;100.00
46928;BME280;32668;51.306;-0.576;2022-09-09T04:46:33;99615.22;;;13.86;100.00
46928;BME280;32668;51.306;-0.576;2022-09-09T04:48:59;99618.72;;;13.85;100.00
46928;BME280;32668;51.306;-0.576;2022-09-09T04:51:25;99618.72;;;13.85;100.00
46928;BME280;32668;51.306;-0.576;2022-09-09T04:53:50;99618.69;;;13.87;100.00
46928;BME280;32668;51.306;-0.576;2022-09-09T04:56:17;99620.44;;;13.86;100.00
46928;BME280;32668;51.306;-0.576;2022-09-09T04:58:43;99629.16;;;13.88;100.00
46928;BME280;32668;51.306;-0.576;2022-09-09T05:01:17;99629.16;;;13.88;100.00
46928;BME280;32668;51.306;-0.576;2022-09-09T05:03:43;99636.13;;;13.88;100.00
46928;BME280;32668;51.306;-0.576;2022-09-09T05:06:13;99637.88;;;13.87;100.00
46928;BME280;32668;51.306;-0.576;2022-09-09T05:08:39;99643.97;;;13.88;100.00
46928;BME280;32668;51.306;-0.576;2022-09-09T05:11:16;99640.50;;;13.87;100.00
46928;BME280;32668;51.306;-0.576;2022-09-09T05:13:43;99649.19;;;13.91;100.00
46928;BME280;32668;51.306;-0.576;2022-09-09T05:16:09;99650.94;;;13.90;100.00
46928;BME280;32668;51.306;-0.576;2022-09-09T05:18:39;99646.59;;;13.89;100.00
46928;BME280;32668;51.306;-0.576;2022-09-09T05:21:05;99654.44;;;13.89;100.00
46928;BME280;32668;51.306;-0.576;2022-09-09T05:23:31;99655.28;;;13.90;100.00
46928;BME280;32668;51.306;-0.576;2022-09-09T05:25:58;99657.91;;;13.91;100.00
46928;BME280;32668;51.306;-0.576;2022-09-09T05:28:25;99657.91;;;13.90;100.00
46928;BME280;32668;51.306;-0.576;2022-09-09T05:31:05;99656.19;;;13.87;100.00
46928;BME280;32668;51.306;-0.576;2022-09-09T05:33:33;99655.31;;;13.88;100.00
46928;BME280;32668;51.306;-0.576;2022-09-09T05:36:01;99657.91;;;13.91;100.00
46928;BME280;32668;51.306;-0.576;2022-09-09T05:38:28;99667.50;;;13.92;100.00
46928;BME280;32668;51.306;-0.576;2022-09-09T05:40:54;99667.50;;;13.92;100.00
46928;BME280;32668;51.306;-0.576;2022-09-09T05:43:21;99671.00;;;13.91;100.00
46928;BME280;32668;51.306;-0.576;2022-09-09T05:46:07;99677.09;;;13.93;100.00
46928;BME280;32668;51.306;-0.576;2022-09-09T05:48:37;99674.47;;;13.95;100.00
46928;BME280;32668;51.306;-0.576;2022-09-09T05:51:04;99674.47;;;13.95;100.00
46928;BME280;32668;51.306;-0.576;2022-09-09T05:53:30;99679.69;;;13.97;100.00
46928;BME280;32668;51.306;-0.576;2022-09-09T05:56:10;99671.81;;;13.97;100.00
46928;BME280;32668;51.306;-0.576;2022-09-09T05:58:36;99679.69;;;13.98;100.00
46928;BME280;32668;51.306;-0.576;2022-09-09T06:01:06;99680.53;;;13.99;100.00
46928;BME280;32668;51.306;-0.576;2022-09-09T06:03:34;99680.56;;;14.00;100.00
46928;BME280;32668;51.306;-0.576;2022-09-09T06:06:01;99688.41;;;14.03;100.00
46928;BME280;32668;51.306;-0.576;2022-09-09T06:08:27;99692.72;;;14.06;100.00
46928;BME280;32668;51.306;-0.576;2022-09-09T06:10:53;99697.09;;;14.07;100.00
46928;BME280;32668;51.306;-0.576;2022-09-09T06:13:18;99699.72;;;14.04;100.00
46928;BME280;32668;51.306;-0.576;2022-09-09T06:15:52;99698.84;;;14.02;100.00
46928;BME280;32668;51.306;-0.576;2022-09-09T06:18:18;99700.59;;;14.04;100.00
46928;BME280;32668;51.306;-0.576;2022-09-09T06:21:02;99703.22;;;14.04;100.00
46928;BME280;32668;51.306;-0.576;2022-09-09T06:23:32;99711.94;;;14.06;100.00
46928;BME280;32668;51.306;-0.576;2022-09-09T06:26:28;99710.16;;;14.07;100.00
46928;BME280;32668;51.306;-0.576;2022-09-09T06:28:55;99711.88;;;14.09;100.00
46928;BME280;32668;51.306;-0.576;2022-09-09T06:31:24;99711.94;;;14.06;100.00
46928;BME280;32668;51.306;-0.576;2022-09-09T06:33:51;99711.06;;;14.07;100.00
46928;BME280;32668;51.306;-0.576;2022-09-09T06:36:22;99716.28;;;14.09;100.00
46928;BME280;32668;51.306;-0.576;2022-09-09T06:38:49;99719.75;;;14.13;100.00
46928;BME280;32668;51.306;-0.576;2022-09-09T06:41:17;99721.47;;;14.18;100.00
46928;BME280;32668;51.306;-0.576;2022-09-09T06:43:43;99725.84;;;14.19;100.00
46928;BME280;32668;51.306;-0.576;2022-09-09T06:46:17;99725.81;;;14.18;100.00
46928;BME280;32668;51.306;-0.576;2022-09-09T06:48:44;99729.31;;;14.20;100.00
46928;BME280;32668;51.306;-0.576;2022-09-09T06:51:18;99741.53;;;14.18;100.00
46928;BME280;32668;51.306;-0.576;2022-09-09T06:53:45;99731.94;;;14.20;100.00
46928;BME280;32668;51.306;-0.576;2022-09-09T06:58:40;99736.28;;;14.22;100.00
46928;BME280;32668;51.306;-0.576;2022-09-09T07:01:14;99738.03;;;14.25;100.00
46928;BME280;32668;51.306;-0.576;2022-09-09T07:03:40;99746.75;;;14.27;100.00
46928;BME280;32668;51.306;-0.576;2022-09-09T07:06:07;99746.78;;;14.15;100.00
46928;BME280;32668;51.306;-0.576;2022-09-09T07:08:34;99744.16;;;14.13;100.00
46928;BME280;32668;51.306;-0.576;2022-09-09T07:11:03;99751.13;;;14.13;100.00
46928;BME280;32668;51.306;-0.576;2022-09-09T07:13:32;99747.66;;;14.09;100.00
46928;BME280;32668;51.306;-0.576;2022-09-09T07:16:09;99752.91;;;14.07;100.00
46928;BME280;32668;51.306;-0.576;2022-09-09T07:18:35;99750.25;;;14.14;100.00
46928;BME280;32668;51.306;-0.576;2022-09-09T07:21:01;99754.63;;;14.13;100.00
46928;BME280;32668;51.306;-0.576;2022-09-09T07:23:27;99759.81;;;14.30;100.00
46928;BME280;32668;51.306;-0.576;2022-09-09T07:25:53;99753.66;;;14.42;100.00
46928;BME280;32668;51.306;-0.576;2022-09-09T07:28:22;99751.88;;;14.52;100.00
46928;BME280;32668;51.306;-0.576;2022-09-09T07:31:01;99755.28;;;14.77;100.00
46928;BME280;32668;51.306;-0.576;2022-09-09T07:33:29;99750.78;;;14.93;100.00
46928;BME280;32668;51.306;-0.576;2022-09-09T07:38:44;99753.47;;;14.90;100.00
46928;BME280;32668;51.306;-0.576;2022-09-09T07:41:14;99760.44;;;14.87;100.00
46928;BME280;32668;51.306;-0.576;2022-09-09T07:43:42;99763.13;;;14.77;100.00
46928;BME280;32668;51.306;-0.576;2022-09-09T07:46:09;99761.41;;;14.72;100.00
46928;BME280;32668;51.306;-0.576;2022-09-09T07:48:35;99771.88;;;14.64;100.00
46928;BME280;32668;51.306;-0.576;2022-09-09T07:51:08;99777.16;;;14.56;100.00
46928;BME280;32668;51.306;-0.576;2022-09-09T07:53:35;99780.66;;;14.53;100.00
46928;BME280;32668;51.306;-0.576;2022-09-09T07:56:10;99778.91;;;14.56;100.00
46928;BME280;32668;51.306;-0.576;2022-09-09T07:58:37;99785.88;;;14.57;100.00
46928;BME280;32668;51.306;-0.576;2022-09-09T08:01:30;99799.88;;;14.51;100.00
46928;BME280;32668;51.306;-0.576;2022-09-09T08:03:58;99800.72;;;14.54;100.00
46928;BME280;32668;51.306;-0.576;2022-09-09T08:06:25;99798.97;;;14.61;100.00
46928;BME280;32668;51.306;-0.576;2022-09-09T08:08:51;99798.91;;;14.67;100.00
46928;BME280;32668;51.306;-0.576;2022-09-09T08:11:17;99800.72;;;14.70;100.00
46928;BME280;32668;51.306;-0.576;2022-09-09T08:13:43;99804.19;;;14.72;100.00
46928;BME280;32668;51.306;-0.576;2022-09-09T08:16:14;99809.38;;;14.80;100.00
46928;BME280;32668;51.306;-0.576;2022-09-09T08:18:41;99809.38;;;14.86;100.00
46928;BME280;32668;51.306;-0.576;2022-09-09T08:21:11;99817.19;;;14.88;100.00
46928;BME280;32668;51.306;-0.576;2022-09-09T08:23:41;99817.19;;;14.91;100.00
46928;BME280;32668;51.306;-0.576;2022-09-09T08:26:14;99819.81;;;14.94;100.00
46928;BME280;32668;51.306;-0.576;2022-09-09T08:28:40;99830.31;;;14.89;100.00
46928;BME280;32668;51.306;-0.576;2022-09-09T08:31:15;99831.19;;;14.87;100.00
46928;BME280;32668;51.306;-0.576;2022-09-09T08:33:42;99839.09;;;14.74;100.00
46928;BME280;32668;51.306;-0.576;2022-09-09T08:36:12;99835.59;;;14.66;100.00
46928;BME280;32668;51.306;-0.576;2022-09-09T08:38:41;99840.81;;;14.67;100.00
46928;BME280;32668;51.306;-0.576;2022-09-09T08:44:12;99851.34;;;14.61;100.00
46928;BME280;32668;51.306;-0.576;2022-09-09T08:49:56;99859.16;;;14.67;100.00
46928;BME280;32668;51.306;-0.576;2022-09-09T08:52:30;99861.78;;;14.67;100.00
46928;BME280;32668;51.306;-0.576;2022-09-09T08:55:01;99859.19;;;14.71;100.00
46928;BME280;32668;51.306;-0.576;2022-09-09T08:57:28;99868.78;;;14.73;100.00
46928;BME280;32668;51.306;-0.576;2022-09-09T08:59:57;99864.41;;;14.74;100.00
46928;BME280;32668;51.306;-0.576;2022-09-09T09:04:56;99877.47;;;14.81;100.00
46928;BME280;32668;51.306;-0.576;2022-09-09T09:12:45;99880.84;;;15.16;100.00
46928;BME280;32668;51.306;-0.576;2022-09-09T09:15:24;99873.84;;;15.18;100.00
46928;BME280;32668;51.306;-0.576;2022-09-09T09:17:51;99879.03;;;15.29;100.00
46928;BME280;32668;51.306;-0.576;2022-09-09T09:20:20;99885.03;;;15.47;100.00
46928;BME280;32668;51.306;-0.576;2022-09-09T09:22:51;99888.34;;;15.70;100.00
46928;BME280;32668;51.306;-0.576;2022-09-09T09:25:39;99895.22;;;15.90;100.00
46928;BME280;32668;51.306;-0.576;2022-09-09T09:30:39;99888.94;;;16.11;100.00
46928;BME280;32668;51.306;-0.576;2022-09-09T09:35:52;99906.47;;;16.08;100.00
46928;BME280;32668;51.306;-0.576;2022-09-09T09:38:21;99909.16;;;16.00;100.00
46928;BME280;32668;51.306;-0.576;2022-09-09T09:40:52;99910.84;;;16.04;100.00
46928;BME280;32668;51.306;-0.576;2022-09-09T09:43:36;99913.44;;;16.10;100.00
46928;BME280;32668;51.306;-0.576;2022-09-09T09:46:05;99915.16;;;16.16;100.00
46928;BME280;32668;51.306;-0.576;2022-09-09T09:48:43;99915.09;;;16.22;100.00
46928;BME280;32668;51.306;-0.576;2022-09-09T09:51:11;99917.81;;;16.13;100.00
46928;BME280;32668;51.306;-0.576;2022-09-09T09:53:40;99922.28;;;16.00;100.00
46928;BME280;32668;51.306;-0.576;2022-09-09T09:56:08;99930.19;;;15.97;100.00
46928;BME280;32668;51.306;-0.576;2022-09-09T10:01:24;99929.44;;;15.75;100.00
46928;BME280;32668;51.306;-0.576;2022-09-09T10:03:52;99931.19;;;15.74;100.00
46928;BME280;32668;51.306;-0.576;2022-09-09T10:06:32;99932.94;;;15.72;100.00
46928;BME280;32668;51.306;-0.576;2022-09-09T10:08:58;99931.25;;;15.65;100.00
46928;BME280;32668;51.306;-0.576;2022-09-09T10:11:47;99940.00;;;15.61;100.00
46928;BME280;32668;51.306;-0.576;2022-09-09T10:17:22;99945.38;;;15.39;100.00
46928;BME280;32668;51.306;-0.576;2022-09-09T10:22:39;99945.38;;;15.37;100.00
46928;BME280;32668;51.306;-0.576;2022-09-09T10:36:13;99954.75;;;15.88;100.00
46928;BME280;32668;51.306;-0.576;2022-09-09T10:38:46;99950.38;;;15.81;100.00
46928;BME280;32668;51.306;-0.576;2022-09-09T10:41:19;99953.81;;;15.97;100.00
46928;BME280;32668;51.306;-0.576;2022-09-09T10:44:01;99960.72;;;16.09;100.00
46928;BME280;32668;51.306;-0.576;2022-09-09T10:46:38;99957.09;;;16.24;100.00
46928;BME280;32668;51.306;-0.576;2022-09-09T10:52:14;99958.63;;;16.45;100.00
46928;BME280;32668;51.306;-0.576;2022-09-09T10:57:40;99957.84;;;16.40;100.00
46928;BME280;32668;51.306;-0.576;2022-09-09T11:02:40;99959.72;;;16.22;100.00
46928;BME280;32668;51.306;-0.576;2022-09-09T11:05:16;99965.00;;;16.21;100.00
46928;BME280;32668;51.306;-0.576;2022-09-09T11:07:55;99961.47;;;16.23;100.00
46928;BME280;32668;51.306;-0.576;2022-09-09T11:10:45;99961.47;;;16.22;100.00
46928;BME280;32668;51.306;-0.576;2022-09-09T11:19:00;99971.63;;;16.62;100.00
46928;BME280;32668;51.306;-0.576;2022-09-09T11:21:33;99972.38;;;16.76;100.00
46928;BME280;32668;51.306;-0.576;2022-09-09T11:24:08;99967.06;;;16.83;100.00
46928;BME280;32668;51.306;-0.576;2022-09-09T11:26:43;99983.66;;;16.83;100.00
46928;BME280;32668;51.306;-0.576;2022-09-09T11:42:47;99982.28;;;16.45;100.00
46928;BME280;32668;51.306;-0.576;2022-09-09T11:45:24;99984.00;;;16.46;100.00
46928;BME280;32668;51.306;-0.576;2022-09-09T11:47:59;99984.81;;;16.54;100.00
46928;BME280;32668;51.306;-0.576;2022-09-09T11:52:51;99992.69;;;16.57;100.00
46928;BME280;32668;51.306;-0.576;2022-09-09T11:58:05;100002.28;;;16.60;100.00
46928;BME280;32668;51.306;-0.576;2022-09-09T12:00:44;99993.72;;;16.41;100.00
46928;BME280;32668;51.306;-0.576;2022-09-09T12:03:36;100005.16;;;16.30;100.00
46928;BME280;32668;51.306;-0.576;2022-09-09T12:08:36;99992.16;;;16.15;100.00
46928;BME280;32668;51.306;-0.576;2022-09-09T12:11:02;99996.56;;;16.13;100.00
46928;BME280;32668;51.306;-0.576;2022-09-09T12:13:30;99990.34;;;16.22;100.00
46928;BME280;32668;51.306;-0.576;2022-09-09T12:15:58;99996.44;;;16.28;100.00
46928;BME280;32668;51.306;-0.576;2022-09-09T12:18:25;99992.84;;;16.39;100.00
46928;BME280;32668;51.306;-0.576;2022-09-09T12:21:03;99995.28;;;16.60;100.00
46928;BME280;32668;51.306;-0.576;2022-09-09T12:26:27;99992.38;;;16.88;100.00
46928;BME280;32668;51.306;-0.576;2022-09-09T12:31:41;99997.69;;;16.82;100.00
46928;BME280;32668;51.306;-0.576;2022-09-09T12:36:37;100001.09;;;16.92;100.00
46928;BME280;32668;51.306;-0.576;2022-09-09T12:39:27;100003.72;;;16.92;100.00
46928;BME280;32668;51.306;-0.576;2022-09-09T12:41:55;100009.94;;;16.85;100.00
46928;BME280;32668;51.306;-0.576;2022-09-09T12:44:23;100009.06;;;16.86;100.00
46928;BME280;32668;51.306;-0.576;2022-09-09T12:46:49;100001.06;;;16.95;100.00
46928;BME280;32668;51.306;-0.576;2022-09-09T12:51:54;100014.00;;;17.18;100.00
46928;BME280;32668;51.306;-0.576;2022-09-09T12:54:21;100009.56;;;17.22;100.00
46928;BME280;32668;51.306;-0.576;2022-09-09T12:56:47;100004.22;;;17.30;100.00
46928;BME280;32668;51.306;-0.576;2022-09-09T12:59:25;99996.28;;;17.34;100.00
46928;BME280;32668;51.306;-0.576;2022-09-09T13:01:58;100002.25;;;17.46;100.00
46928;BME280;32668;51.306;-0.576;2022-09-09T13:04:24;100007.50;;;17.49;100.00
46928;BME280;32668;51.306;-0.576;2022-09-09T13:06:49;100003.00;;;17.57;100.00
46928;BME280;32668;51.306;-0.576;2022-09-09T13:09:15;100010.78;;;17.66;100.00
46928;BME280;32668;51.306;-0.576;2022-09-09T13:11:50;100005.38;;;17.76;100.00
46928;BME280;32668;51.306;-0.576;2022-09-09T13:14:28;99998.34;;;17.78;100.00
46928;BME280;32668;51.306;-0.576;2022-09-09T13:16:58;100013.41;;;17.66;100.00
46928;BME280;32668;51.306;-0.576;2022-09-09T13:19:24;100018.72;;;17.63;100.00
46928;BME280;32668;51.306;-0.576;2022-09-09T13:21:54;100019.41;;;17.76;100.00
46928;BME280;32668;51.306;-0.576;2022-09-09T13:24:33;100012.38;;;17.78;100.00
46928;BME280;32668;51.306;-0.576;2022-09-09T13:27:19;100017.75;;;17.69;100.00
46928;BME280;32668;51.306;-0.576;2022-09-09T13:29:53;100019.13;;;17.29;100.00
46928;BME280;32668;51.306;-0.576;2022-09-09T13:32:23;100020.25;;;17.10;100.00
46928;BME280;32668;51.306;-0.576;2022-09-09T13:34:58;100017.72;;;16.94;100.00
46928;BME280;32668;51.306;-0.576;2022-09-09T13:37:39;100018.69;;;16.85;100.00
46928;BME280;32668;51.306;-0.576;2022-09-09T13:40:14;100023.00;;;16.91;100.00
46928;BME280;32668;51.306;-0.576;2022-09-09T13:42:42;100028.31;;;16.86;100.00
46928;BME280;32668;51.306;-0.576;2022-09-09T13:45:28;100024.75;;;16.92;100.00
46928;BME280;32668;51.306;-0.576;2022-09-09T13:47:54;100028.28;;;16.89;100.00
46928;BME280;32668;51.306;-0.576;2022-09-09T13:50:30;100023.88;;;16.90;100.00
46928;BME280;32668;51.306;-0.576;2022-09-09T13:52:57;100030.91;;;16.88;100.00
46928;BME280;32668;51.306;-0.576;2022-09-09T13:55:25;100038.03;;;16.78;100.00
46928;BME280;32668;51.306;-0.576;2022-09-09T13:57:53;100036.31;;;16.75;100.00
46928;BME280;32668;51.306;-0.576;2022-09-09T14:00:19;100037.13;;;16.84;100.00
46928;BME280;32668;51.306;-0.576;2022-09-09T14:02:44;100034.44;;;16.88;100.00
46928;BME280;32668;51.306;-0.576;2022-09-09T14:05:10;100032.59;;;16.95;100.00
46928;BME280;32668;51.306;-0.576;2022-09-09T14:07:37;100039.63;;;16.99;100.00
46928;BME280;32668;51.306;-0.576;2022-09-09T14:10:04;100045.69;;;17.04;100.00
46928;BME280;32668;51.306;-0.576;2022-09-09T14:12:30;100039.63;;;16.95;100.00
46928;BME280;32668;51.306;-0.576;2022-09-09T14:14:55;100034.38;;;16.95;100.00
46928;BME280;32668;51.306;-0.576;2022-09-09T14:17:20;100036.09;;;17.00;100.00
46928;BME280;32668;51.306;-0.576;2022-09-09T14:19:47;100040.50;;;16.95;100.00
46928;BME280;32668;51.306;-0.576;2022-09-09T14:22:12;100040.53;;;16.97;100.00
46928;BME280;32668;51.306;-0.576;2022-09-09T14:24:38;100040.63;;;16.83;100.00
46928;BME280;32668;51.306;-0.576;2022-09-09T14:27:03;100038.91;;;16.77;100.00
46928;BME280;32668;51.306;-0.576;2022-09-09T14:29:28;100042.41;;;16.76;100.00
46928;BME280;32668;51.306;-0.576;2022-09-09T14:31:54;100043.41;;;16.64;100.00
46928;BME280;32668;51.306;-0.576;2022-09-09T14:34:19;100043.44;;;16.62;100.00
46928;BME280;32668;51.306;-0.576;2022-09-09T14:36:45;100045.22;;;16.57;100.00
46928;BME280;32668;51.306;-0.576;2022-09-09T14:39:10;100042.53;;;16.62;100.00
46928;BME280;32668;51.306;-0.576;2022-09-09T14:41:36;100041.50;;;16.82;100.00
46928;BME280;32668;51.306;-0.576;2022-09-09T14:44:02;100044.91;;;16.91;100.00
46928;BME280;32668;51.306;-0.576;2022-09-09T14:46:27;100043.13;;;16.95;100.00
46928;BME280;32668;51.306;-0.576;2022-09-09T14:48:52;100042.22;;;17.02;100.00
46928;BME280;32668;51.306;-0.576;2022-09-09T14:51:21;100044.00;;;16.99;100.00
46928;BME280;32668;51.306;-0.576;2022-09-09T14:53:51;100039.63;;;16.98;100.00
46928;BME280;32668;51.306;-0.576;2022-09-09T14:56:20;100045.69;;;17.03;100.00
46928;BME280;32668;51.306;-0.576;2022-09-09T14:58:47;100044.81;;;17.04;100.00
46928;BME280;32668;51.306;-0.576;2022-09-09T15:01:16;100042.16;;;17.07;100.00
46928;BME280;32668;51.306;-0.576;2022-09-09T15:03:47;100050.06;;;17.04;100.00
46928;BME280;32668;51.306;-0.576;2022-09-09T15:06:14;100050.06;;;17.04;100.00